createdAt,value
2023-06-17T00:04:31.986Z,99176.80
2023-06-17T00:14:58.631Z,99170.64
2023-06-17T00:25:25.509Z,99170.20
2023-06-17T00:35:55.732Z,99164.58
2023-06-17T00:46:58.133Z,99155.95
2023-06-17T00:57:22.549Z,99146.61
2023-06-17T01:07:54.324Z,99146.26
2023-06-17T01:18:19.306Z,99141.50
2023-06-17T01:28:45.885Z,99143.15
2023-06-17T01:39:11.647Z,99142.46
2023-06-17T01:49:35.446Z,99140.66
2023-06-17T02:00:00.506Z,99141.13
2023-06-17T02:10:26.644Z,99134.74
2023-06-17T02:20:51.010Z,99136.77
2023-06-17T02:31:15.284Z,99137.66
2023-06-17T02:41:39.817Z,99138.61
2023-06-17T02:52:04.000Z,99146.28
2023-06-17T03:02:28.899Z,99141.04
2023-06-17T03:12:53.495Z,99139.34
2023-06-17T03:23:17.505Z,99135.55
2023-06-17T03:33:43.252Z,99137.09
2023-06-17T03:44:07.661Z,99135.29
2023-06-17T03:54:32.032Z,99134.35
2023-06-17T04:04:57.100Z,99143.91
2023-06-17T04:15:23.758Z,99144.35
2023-06-17T04:25:47.682Z,99142.13
2023-06-17T04:36:12.666Z,99153.19
2023-06-17T04:46:38.222Z,99159.77
2023-06-17T04:57:03.029Z,99161.48
2023-06-17T05:07:27.220Z,99169.83
2023-06-17T05:17:51.692Z,99173.74
2023-06-17T05:28:15.951Z,99177.88
2023-06-17T05:38:41.276Z,99182.02
2023-06-17T05:49:05.493Z,99178.90
2023-06-17T05:59:31.309Z,99177.77
2023-06-17T06:09:56.829Z,99175.83
2023-06-17T06:20:21.257Z,99178.33
2023-06-17T06:30:45.111Z,99181.98
2023-06-17T06:41:09.942Z,99185.21
2023-06-17T06:51:38.425Z,99194.36
2023-06-17T07:02:02.480Z,99191.90
2023-06-17T07:12:28.676Z,99189.48
2023-06-17T07:22:53.113Z,99182.86
2023-06-17T07:33:17.462Z,99182.14
2023-06-17T07:43:42.298Z,99192.04
2023-06-17T07:54:06.895Z,99190.70
2023-06-17T08:04:30.860Z,99182.80
2023-06-17T08:14:55.292Z,99174.77
2023-06-17T08:25:19.935Z,99169.95
2023-06-17T08:35:43.710Z,99171.99
2023-06-17T08:46:08.591Z,99169.66
2023-06-17T08:56:33.695Z,99167.10
2023-06-17T09:06:57.988Z,99170.50
2023-06-17T09:17:31.693Z,99169.73
2023-06-17T09:38:23.087Z,99166.29
2023-06-17T09:48:48.808Z,99162.47
2023-06-17T09:59:13.840Z,99164.16
2023-06-17T10:09:37.743Z,99169.55
2023-06-17T10:20:07.088Z,99159.98
2023-06-17T10:30:31.752Z,99153.05
2023-06-17T10:40:56.169Z,99143.83
2023-06-17T10:51:28.363Z,99140.00
2023-06-17T11:02:03.535Z,99139.64
2023-06-17T11:12:27.527Z,99126.05
2023-06-17T11:22:52.648Z,99119.11
2023-06-17T11:33:20.007Z,99113.36
2023-06-17T11:43:43.902Z,99110.42
2023-06-17T11:54:08.410Z,99108.39
2023-06-17T12:04:33.052Z,99100.77
2023-06-17T12:15:15.883Z,99089.52
2023-06-17T12:25:41.169Z,99087.55
2023-06-17T12:36:06.732Z,99082.59
2023-06-17T12:46:30.368Z,99079.85
2023-06-17T12:56:54.702Z,99077.45
2023-06-17T13:07:19.067Z,99078.56
2023-06-17T13:17:43.088Z,99072.26
2023-06-17T13:28:07.920Z,99068.95
2023-06-17T13:38:32.658Z,99068.27
2023-06-17T13:48:56.412Z,99058.91
2023-06-17T13:59:21.495Z,99057.81
2023-06-17T14:09:45.929Z,99078.54
2023-06-17T14:20:11.157Z,99088.52
2023-06-17T14:30:36.121Z,99092.20
2023-06-17T14:41:00.257Z,99123.58
2023-06-17T14:51:24.668Z,99149.15
2023-06-17T15:01:49.253Z,99149.89
2023-06-17T15:12:15.639Z,99126.40
2023-06-17T15:22:39.973Z,99112.35
2023-06-17T15:33:04.778Z,99105.38
2023-06-17T15:45:11.645Z,99093.34
2023-06-17T15:56:10.487Z,99091.19
2023-06-17T16:07:11.856Z,99087.98
2023-06-17T16:17:36.970Z,99085.17
2023-06-17T16:28:01.560Z,99085.91
2023-06-17T16:38:26.962Z,99088.77
2023-06-17T16:48:51.217Z,99092.92
2023-06-17T16:59:15.315Z,99104.27
2023-06-17T17:09:41.626Z,99111.99
2023-06-17T17:20:06.568Z,99118.35
2023-06-17T17:30:30.269Z,99114.66
2023-06-17T17:40:54.200Z,99108.55
2023-06-17T17:51:19.184Z,99112.73
2023-06-17T18:01:43.377Z,99112.91
2023-06-17T18:12:08.204Z,99115.08
2023-06-17T18:22:32.284Z,99117.92
2023-06-17T18:32:56.732Z,99130.66
2023-06-17T18:43:22.343Z,99146.48
2023-06-17T18:53:52.602Z,99158.18
2023-06-17T19:04:16.893Z,99161.08
2023-06-17T19:14:41.480Z,99164.77
2023-06-17T19:25:07.198Z,99176.21
2023-06-17T19:35:39.164Z,99194.52
2023-06-17T19:46:05.448Z,99206.02
2023-06-17T19:56:30.371Z,99211.02
2023-06-17T20:06:54.477Z,99210.77
2023-06-17T20:17:19.054Z,99207.98
2023-06-17T20:27:46.292Z,99214.48
2023-06-17T20:38:10.177Z,99208.13
2023-06-17T20:48:34.978Z,99200.38
2023-06-17T20:58:59.734Z,99205.21
2023-06-17T21:09:24.070Z,99210.20
2023-06-17T21:19:48.981Z,99218.72
2023-06-17T21:30:13.705Z,99218.42
2023-06-17T21:40:37.969Z,99230.80
2023-06-17T21:51:02.741Z,99235.92
2023-06-17T22:01:27.440Z,99238.16
2023-06-17T22:11:52.094Z,99238.46
2023-06-17T22:22:16.850Z,99243.20
2023-06-17T22:32:41.860Z,99242.17
2023-06-17T22:43:06.120Z,99237.64
2023-06-17T22:53:31.524Z,99240.67
2023-06-17T23:03:55.989Z,99242.38
2023-06-17T23:14:19.711Z,99249.86
2023-06-17T23:24:45.581Z,99247.10
2023-06-17T23:35:09.953Z,99233.84
2023-06-17T23:45:34.284Z,99228.19
2023-06-17T23:55:58.469Z,99230.83
